createdAt,value
2022-09-11T00:01:15.995Z,92.70
2022-09-11T00:03:44.308Z,92.70
2022-09-11T00:06:28.441Z,92.70
2022-09-11T00:09:02.098Z,92.70
2022-09-11T00:11:40.640Z,92.70
2022-09-11T00:14:08.572Z,92.70
2022-09-11T00:16:39.113Z,92.70
2022-09-11T00:19:09.321Z,92.70
2022-09-11T00:21:36.562Z,92.70
2022-09-11T00:24:03.936Z,92.70
2022-09-11T00:26:30.862Z,92.70
2022-09-11T00:28:57.793Z,92.70
2022-09-11T00:31:28.815Z,92.70
2022-09-11T00:33:56.580Z,92.70
2022-09-11T00:36:29.119Z,92.70
2022-09-11T00:38:56.350Z,92.70
2022-09-11T00:41:36.559Z,92.70
2022-09-11T00:44:28.945Z,92.70
2022-09-11T00:47:01.887Z,92.80
2022-09-11T00:49:34.168Z,92.80
2022-09-11T00:52:15.562Z,92.70
2022-09-11T00:55:11.654Z,92.80
2022-09-11T00:57:50.078Z,92.80
2022-09-11T01:00:17.017Z,92.80
2022-09-11T01:02:49.037Z,92.80
2022-09-11T01:05:16.593Z,92.80
2022-09-11T01:07:46.090Z,92.80
2022-09-11T01:10:13.503Z,92.70
2022-09-11T01:12:45.729Z,92.80
2022-09-11T01:15:22.618Z,92.70
2022-09-11T01:18:30.349Z,92.70
2022-09-11T01:21:05.886Z,92.80
2022-09-11T01:24:16.607Z,92.70
2022-09-11T01:27:12.251Z,92.80
2022-09-11T01:29:46.130Z,92.80
2022-09-11T01:32:24.115Z,92.80
2022-09-11T01:35:25.421Z,92.80
2022-09-11T01:37:57.456Z,92.80
2022-09-11T01:40:37.279Z,92.80
2022-09-11T01:43:12.811Z,92.80
2022-09-11T01:45:44.583Z,92.80
2022-09-11T01:48:15.047Z,92.80
2022-09-11T01:50:47.364Z,92.80
2022-09-11T01:53:17.636Z,92.80
2022-09-11T01:55:58.461Z,92.80
2022-09-11T01:58:30.563Z,92.80
2022-09-11T02:01:07.975Z,92.80
2022-09-11T02:03:39.251Z,92.80
2022-09-11T02:06:11.035Z,92.80
2022-09-11T02:08:53.052Z,92.80
2022-09-11T02:11:20.604Z,92.70
2022-09-11T02:14:07.719Z,92.80
2022-09-11T02:16:46.748Z,92.70
2022-09-11T02:19:16.833Z,92.70
2022-09-11T02:21:45.156Z,92.70
2022-09-11T02:24:11.914Z,92.70
2022-09-11T02:26:44.074Z,92.70
2022-09-11T02:29:11.748Z,92.70
2022-09-11T02:31:40.028Z,92.70
2022-09-11T02:34:06.943Z,92.70
2022-09-11T02:37:10.994Z,92.70
2022-09-11T02:40:13.177Z,92.70
2022-09-11T02:43:18.960Z,92.70
2022-09-11T02:46:09.238Z,92.70
2022-09-11T02:48:41.855Z,92.70
2022-09-11T02:51:34.144Z,92.70
2022-09-11T02:54:15.189Z,92.70
2022-09-11T02:56:44.988Z,92.70
2022-09-11T02:59:22.003Z,92.70
2022-09-11T03:01:51.966Z,92.70
2022-09-11T03:04:20.716Z,92.70
2022-09-11T03:06:49.291Z,92.70
2022-09-11T03:09:18.056Z,92.70
2022-09-11T03:11:45.490Z,92.70
2022-09-11T03:14:13.051Z,92.70
2022-09-11T03:16:40.864Z,92.70
2022-09-11T03:19:07.946Z,92.70
2022-09-11T03:21:35.127Z,92.70
2022-09-11T03:24:03.137Z,92.70
2022-09-11T03:26:30.015Z,92.70
2022-09-11T03:28:56.688Z,92.70
2022-09-11T03:31:23.417Z,92.70
2022-09-11T03:33:50.119Z,92.70
2022-09-11T03:36:16.836Z,92.70
2022-09-11T03:38:45.395Z,92.70
2022-09-11T03:41:12.144Z,92.70
2022-09-11T03:43:38.948Z,92.70
2022-09-11T03:46:06.251Z,92.70
2022-09-11T03:48:33.560Z,92.70
2022-09-11T03:51:00.292Z,92.70
2022-09-11T03:53:27.608Z,92.70
2022-09-11T03:55:54.797Z,92.70
2022-09-11T03:58:21.558Z,92.70
2022-09-11T04:00:48.378Z,92.70
2022-09-11T04:03:16.863Z,92.70
2022-09-11T04:05:55.099Z,92.70
2022-09-11T04:08:21.799Z,92.70
2022-09-11T04:10:48.481Z,92.70
2022-09-11T04:13:16.671Z,92.70
2022-09-11T04:15:43.330Z,92.70
2022-09-11T04:18:10.040Z,92.70
2022-09-11T04:20:39.878Z,92.80
2022-09-11T04:23:06.664Z,92.80
2022-09-11T04:25:33.357Z,92.70
2022-09-11T04:28:00.103Z,92.70
2022-09-11T04:30:26.893Z,92.70
2022-09-11T04:32:53.590Z,92.70
2022-09-11T04:35:20.317Z,92.70
2022-09-11T04:37:46.999Z,92.70
2022-09-11T04:40:13.806Z,92.70
2022-09-11T04:42:40.504Z,92.80
2022-09-11T04:45:07.649Z,92.70
2022-09-11T04:47:34.467Z,92.70
2022-09-11T04:50:01.995Z,92.80
2022-09-11T04:52:28.708Z,92.80
2022-09-11T04:54:55.416Z,92.80
2022-09-11T04:57:22.151Z,92.80
2022-09-11T04:59:50.765Z,92.80
2022-09-11T05:02:17.512Z,92.80
2022-09-11T05:04:44.268Z,92.80
2022-09-11T05:07:14.404Z,92.80
2022-09-11T05:09:41.146Z,92.80
2022-09-11T05:12:07.885Z,92.80
2022-09-11T05:14:35.856Z,92.80
2022-09-11T05:17:02.631Z,92.80
2022-09-11T05:19:29.463Z,92.80
2022-09-11T05:21:56.208Z,92.80
2022-09-11T05:24:22.888Z,92.80
2022-09-11T05:26:49.573Z,92.80
2022-09-11T05:29:16.829Z,92.80
2022-09-11T05:31:43.616Z,92.80
2022-09-11T05:34:10.409Z,92.80
2022-09-11T05:36:37.354Z,92.80
2022-09-11T05:39:04.626Z,92.80
2022-09-11T05:41:31.407Z,92.80
2022-09-11T05:43:58.960Z,92.80
2022-09-11T05:46:25.999Z,92.80
2022-09-11T05:48:52.721Z,92.80
2022-09-11T05:51:21.586Z,92.80
2022-09-11T05:53:58.633Z,92.80
2022-09-11T05:56:26.108Z,92.80
2022-09-11T05:58:53.279Z,92.80
2022-09-11T06:01:26.068Z,92.80
2022-09-11T06:03:53.701Z,92.80
2022-09-11T06:06:22.506Z,92.80
2022-09-11T06:08:50.185Z,92.80
2022-09-11T06:11:18.851Z,92.80
2022-09-11T06:13:47.348Z,92.80
2022-09-11T06:16:18.510Z,92.80
2022-09-11T06:18:49.250Z,92.80
2022-09-11T06:21:21.322Z,92.90
2022-09-11T06:23:50.007Z,92.90
2022-09-11T06:26:25.075Z,92.90
2022-09-11T06:28:53.524Z,92.90
2022-09-11T06:31:24.304Z,92.90
2022-09-11T06:33:51.317Z,92.90
2022-09-11T06:36:20.134Z,92.90
2022-09-11T06:38:47.358Z,92.90
2022-09-11T06:41:16.370Z,92.90
2022-09-11T06:43:44.176Z,92.90
2022-09-11T06:46:16.591Z,92.90
2022-09-11T06:48:47.717Z,92.90
2022-09-11T06:51:17.488Z,92.90
2022-09-11T06:53:45.263Z,92.90
2022-09-11T06:56:14.455Z,92.90
2022-09-11T06:58:41.561Z,92.90
2022-09-11T07:01:13.792Z,92.90
2022-09-11T07:03:45.286Z,92.90
2022-09-11T07:06:13.659Z,92.90
2022-09-11T07:08:40.423Z,92.90
2022-09-11T07:11:08.629Z,92.90
2022-09-11T07:13:38.229Z,92.90
2022-09-11T07:16:08.220Z,93.00
2022-09-11T07:18:46.132Z,93.00
2022-09-11T07:21:23.912Z,93.00
2022-09-11T07:23:54.493Z,93.00
2022-09-11T07:26:23.104Z,93.00
2022-09-11T07:28:51.484Z,93.00
2022-09-11T07:31:21.419Z,93.00
2022-09-11T07:33:49.721Z,93.00
2022-09-11T07:36:19.073Z,93.00
2022-09-11T07:38:47.822Z,93.00
2022-09-11T07:41:16.718Z,93.00
2022-09-11T07:43:48.197Z,93.10
2022-09-11T07:46:15.173Z,93.10
2022-09-11T07:48:45.040Z,93.10
2022-09-11T07:51:14.931Z,93.10
2022-09-11T07:53:46.448Z,93.10
2022-09-11T07:56:18.707Z,93.10
2022-09-11T07:58:45.834Z,93.10
2022-09-11T08:01:18.165Z,93.10
2022-09-11T08:03:45.957Z,93.10
2022-09-11T08:06:19.006Z,93.10
2022-09-11T08:08:53.774Z,93.10
2022-09-11T08:11:20.873Z,93.20
2022-09-11T08:13:51.014Z,93.20
2022-09-11T08:16:22.774Z,93.20
2022-09-11T08:18:49.951Z,93.20
2022-09-11T08:21:16.697Z,93.30
2022-09-11T08:23:45.003Z,93.20
2022-09-11T08:26:14.692Z,93.10
2022-09-11T08:28:45.402Z,93.20
2022-09-11T08:31:13.255Z,93.20
2022-09-11T08:33:40.445Z,93.10
2022-09-11T08:36:09.780Z,93.00
2022-09-11T08:38:37.776Z,93.10
2022-09-11T08:41:13.169Z,93.20
2022-09-11T08:43:50.827Z,93.10
2022-09-11T08:46:20.845Z,93.10
2022-09-11T08:48:56.865Z,93.20
2022-09-11T08:51:26.003Z,93.20
2022-09-11T08:53:54.543Z,93.10
2022-09-11T08:56:23.982Z,93.10
2022-09-11T08:59:30.036Z,93.00
2022-09-11T09:02:35.064Z,93.10
2022-09-11T09:05:29.404Z,93.10
2022-09-11T09:08:20.450Z,92.60
2022-09-11T09:10:57.110Z,92.50
2022-09-11T09:13:51.738Z,92.50
2022-09-11T09:16:34.552Z,92.90
2022-09-11T09:19:26.358Z,93.00
2022-09-11T09:22:14.953Z,70.80
2022-09-11T09:25:15.615Z,51.70
2022-09-11T09:28:00.362Z,58.00
2022-09-11T09:30:34.561Z,64.50
2022-09-11T09:33:12.660Z,74.80
2022-09-11T09:35:43.144Z,72.80
2022-09-11T09:38:13.133Z,79.80
2022-09-11T09:41:02.608Z,74.90
2022-09-11T09:43:32.447Z,65.70
2022-09-11T09:46:07.904Z,74.30
2022-09-11T09:48:39.711Z,75.20
2022-09-11T09:51:10.887Z,76.00
2022-09-11T09:53:53.548Z,75.40
2022-09-11T09:56:23.722Z,70.80
2022-09-11T09:59:03.175Z,60.50
2022-09-11T10:01:44.843Z,51.30
2022-09-11T10:04:27.013Z,44.10
2022-09-11T10:07:16.582Z,29.40
2022-09-11T10:09:51.519Z,14.30
2022-09-11T10:12:26.832Z,14.40
2022-09-11T10:14:59.616Z,10.50
2022-09-11T10:17:29.555Z,15.60
2022-09-11T10:20:12.333Z,18.20
2022-09-11T10:22:39.836Z,19.80
2022-09-11T10:25:12.358Z,9.20
2022-09-11T10:28:04.930Z,7.30
2022-09-11T10:30:33.822Z,4.20
2022-09-11T10:33:04.187Z,1.00
2022-09-11T10:35:32.115Z,1.70
2022-09-11T10:38:19.165Z,8.00
2022-09-11T10:41:02.128Z,1.00
2022-09-11T10:44:03.062Z,1.00
2022-09-11T10:46:40.379Z,1.00
2022-09-11T10:49:15.814Z,1.00
2022-09-11T10:51:56.956Z,1.00
2022-09-11T10:54:26.486Z,1.00
2022-09-11T10:57:21.158Z,1.00
2022-09-11T11:00:14.226Z,1.00
2022-09-11T11:03:06.312Z,1.00
2022-09-11T11:06:00.694Z,1.00
2022-09-11T11:08:42.533Z,1.00
2022-09-11T11:11:32.482Z,1.00
2022-09-11T11:14:17.049Z,1.00
2022-09-11T11:16:52.582Z,1.00
2022-09-11T11:19:28.171Z,1.00
2022-09-11T11:22:31.185Z,1.00
2022-09-11T11:25:31.061Z,1.00
2022-09-11T11:28:35.541Z,1.00
2022-09-11T11:31:26.490Z,1.00
2022-09-11T11:33:59.321Z,1.00
2022-09-11T11:36:41.453Z,1.00
2022-09-11T11:39:30.904Z,1.00
2022-09-11T11:42:17.349Z,1.00
2022-09-11T11:45:04.547Z,1.00
2022-09-11T11:47:38.299Z,1.00
2022-09-11T11:50:19.115Z,1.00
2022-09-11T11:53:01.182Z,1.00
2022-09-11T11:55:48.487Z,1.00
2022-09-11T11:58:26.791Z,1.00
2022-09-11T12:00:59.882Z,1.00
2022-09-11T12:03:36.345Z,1.00
2022-09-11T12:06:05.653Z,1.00
2022-09-11T12:08:32.594Z,1.00
2022-09-11T12:11:07.697Z,1.00
2022-09-11T12:13:36.841Z,1.00
2022-09-11T12:16:28.563Z,1.00
2022-09-11T12:19:05.792Z,1.00
2022-09-11T12:21:32.439Z,1.00
2022-09-11T12:23:59.889Z,1.00
2022-09-11T12:26:28.027Z,1.00
2022-09-11T12:29:13.981Z,1.00
2022-09-11T12:31:49.856Z,1.00
2022-09-11T12:34:38.824Z,1.00
2022-09-11T12:37:12.455Z,1.00
2022-09-11T12:39:53.686Z,1.00
2022-09-11T12:42:23.214Z,1.00
2022-09-11T12:44:49.890Z,1.00
2022-09-11T12:47:27.441Z,1.00
2022-09-11T12:50:21.833Z,1.00
2022-09-11T12:53:02.206Z,1.00
2022-09-11T12:55:53.064Z,1.00
2022-09-11T12:58:19.748Z,1.00
2022-09-11T13:00:49.518Z,1.00
2022-09-11T13:03:26.220Z,1.00
2022-09-11T13:05:56.957Z,1.00
2022-09-11T13:08:27.700Z,1.00
2022-09-11T13:11:15.484Z,1.00
2022-09-11T13:13:46.927Z,1.00
2022-09-11T13:16:19.153Z,1.00
2022-09-11T13:18:46.181Z,1.00
2022-09-11T13:21:18.155Z,1.00
2022-09-11T13:23:46.784Z,1.00
2022-09-11T13:26:18.743Z,1.00
2022-09-11T13:28:49.798Z,1.00
2022-09-11T13:31:41.290Z,1.00
2022-09-11T13:34:15.202Z,1.00
2022-09-11T13:36:42.227Z,1.00
2022-09-11T13:39:10.265Z,1.00
2022-09-11T13:41:44.363Z,1.00
2022-09-11T13:44:39.669Z,1.00
2022-09-11T13:47:26.362Z,1.00
2022-09-11T13:50:02.520Z,1.00
2022-09-11T13:52:34.176Z,1.00
2022-09-11T13:55:10.174Z,1.00
2022-09-11T13:57:50.845Z,1.00
2022-09-11T14:00:37.873Z,1.00
2022-09-11T14:03:06.971Z,1.00
2022-09-11T14:05:35.051Z,1.00
2022-09-11T14:08:09.495Z,1.00
2022-09-11T14:10:48.154Z,1.00
2022-09-11T14:13:43.739Z,1.00
2022-09-11T14:16:22.675Z,1.00
2022-09-11T14:19:06.669Z,1.00
2022-09-11T14:21:36.479Z,1.00
2022-09-11T14:24:07.188Z,1.00
2022-09-11T14:26:35.072Z,1.00
2022-09-11T14:29:22.960Z,1.00
2022-09-11T14:31:53.058Z,1.00
2022-09-11T14:34:29.301Z,1.00
2022-09-11T14:37:03.388Z,1.00
2022-09-11T14:39:48.539Z,1.00
2022-09-11T14:42:21.098Z,1.00
2022-09-11T14:44:48.341Z,1.00
2022-09-11T14:47:26.586Z,1.00
2022-09-11T14:49:55.355Z,1.00
2022-09-11T14:52:24.860Z,1.00
2022-09-11T14:54:52.024Z,1.00
2022-09-11T14:57:23.550Z,1.00
2022-09-11T14:59:51.018Z,1.00
2022-09-11T15:02:21.258Z,1.00
2022-09-11T15:04:48.966Z,1.00
2022-09-11T15:07:17.020Z,1.00
2022-09-11T15:09:43.766Z,1.00
2022-09-11T15:12:12.094Z,1.00
2022-09-11T15:14:57.964Z,1.00
2022-09-11T15:17:30.542Z,1.00
2022-09-11T15:20:00.261Z,1.00
2022-09-11T15:22:27.285Z,1.00
2022-09-11T15:24:54.504Z,1.00
2022-09-11T15:27:23.226Z,1.00
2022-09-11T15:29:49.956Z,1.00
2022-09-11T15:32:16.786Z,1.00
2022-09-11T15:34:45.043Z,1.00
2022-09-11T15:37:12.111Z,1.00
2022-09-11T15:39:39.129Z,1.00
2022-09-11T15:42:07.405Z,1.00
2022-09-11T15:44:36.166Z,1.00
2022-09-11T15:47:04.141Z,1.00
2022-09-11T15:49:31.719Z,1.00
2022-09-11T15:51:59.601Z,1.00
2022-09-11T15:54:27.083Z,1.00
2022-09-11T15:56:54.611Z,1.00
2022-09-11T15:59:21.657Z,1.00
2022-09-11T16:01:48.903Z,1.00
2022-09-11T16:04:20.224Z,1.00
2022-09-11T16:06:48.454Z,1.00
2022-09-11T16:09:20.596Z,1.00
2022-09-11T16:11:50.746Z,1.00
2022-09-11T16:14:27.261Z,1.00
2022-09-11T16:16:54.820Z,1.00
2022-09-11T16:19:27.471Z,1.00
2022-09-11T16:21:56.556Z,2.90
2022-09-11T16:24:25.601Z,4.90
2022-09-11T16:26:55.851Z,7.50
2022-09-11T16:29:24.492Z,12.00
2022-09-11T16:31:51.241Z,13.40
2022-09-11T16:34:17.953Z,14.60
2022-09-11T16:36:45.525Z,15.30
2022-09-11T16:39:14.716Z,19.20
2022-09-11T16:41:41.654Z,21.50
2022-09-11T16:44:10.809Z,25.50
2022-09-11T16:46:37.740Z,26.80
2022-09-11T16:49:05.913Z,28.10
2022-09-11T16:51:34.078Z,31.70
2022-09-11T16:54:02.021Z,38.00
2022-09-11T16:56:28.908Z,39.30
2022-09-11T16:58:55.781Z,46.80
2022-09-11T17:01:24.658Z,54.40
2022-09-11T17:03:53.380Z,61.10
2022-09-11T17:06:21.403Z,63.10
2022-09-11T17:08:50.937Z,62.50
2022-09-11T17:11:20.180Z,65.40
2022-09-11T17:13:47.834Z,69.60
2022-09-11T17:16:21.600Z,73.30
2022-09-11T17:18:51.167Z,78.80
2022-09-11T17:21:17.945Z,80.50
2022-09-11T17:23:44.914Z,76.30
2022-09-11T17:26:15.211Z,72.10
2022-09-11T17:28:43.047Z,72.30
2022-09-11T17:31:11.299Z,73.70
2022-09-11T17:33:40.172Z,78.70
2022-09-11T17:36:10.089Z,82.60
2022-09-11T17:38:38.207Z,86.20
2022-09-11T17:41:07.432Z,87.10
2022-09-11T17:43:36.160Z,86.00
2022-09-11T17:46:11.832Z,86.60
2022-09-11T17:48:39.823Z,88.80
2022-09-11T17:51:16.519Z,87.90
2022-09-11T17:53:46.267Z,88.00
2022-09-11T17:56:16.777Z,88.10
2022-09-11T17:58:45.166Z,90.20
2022-09-11T18:01:16.796Z,90.60
2022-09-11T18:03:44.301Z,90.80
2022-09-11T18:06:38.112Z,90.80
2022-09-11T18:09:13.707Z,91.20
2022-09-11T18:11:43.019Z,91.30
2022-09-11T18:14:11.619Z,91.50
2022-09-11T18:16:39.105Z,91.70
2022-09-11T18:19:06.552Z,91.60
2022-09-11T18:21:38.124Z,91.50
2022-09-11T18:24:06.576Z,91.40
2022-09-11T18:26:39.455Z,91.30
2022-09-11T18:29:10.040Z,91.60
2022-09-11T18:31:43.101Z,91.90
2022-09-11T18:34:12.307Z,91.90
2022-09-11T18:36:39.059Z,91.90
2022-09-11T18:39:06.051Z,91.80
2022-09-11T18:41:36.957Z,91.70
2022-09-11T18:44:07.330Z,91.60
2022-09-11T18:46:37.428Z,91.50
2022-09-11T18:49:05.214Z,91.50
2022-09-11T18:51:32.717Z,91.80
2022-09-11T18:54:00.121Z,91.70
2022-09-11T18:56:28.587Z,91.60
2022-09-11T18:58:56.124Z,91.40
2022-09-11T19:01:25.923Z,91.50
2022-09-11T19:03:53.489Z,91.50
2022-09-11T19:06:24.560Z,91.70
2022-09-11T19:08:52.832Z,91.70
2022-09-11T19:11:28.556Z,91.50
2022-09-11T19:14:01.917Z,91.70
2022-09-11T19:16:28.945Z,91.70
2022-09-11T19:18:55.786Z,91.70
2022-09-11T19:21:23.968Z,91.60
2022-09-11T19:23:57.613Z,91.50
2022-09-11T19:26:30.527Z,91.40
2022-09-11T19:28:57.540Z,91.50
2022-09-11T19:31:28.419Z,91.60
2022-09-11T19:33:56.762Z,91.60
2022-09-11T19:36:27.985Z,91.60
2022-09-11T19:39:01.284Z,91.60
2022-09-11T19:41:31.326Z,91.60
2022-09-11T19:44:00.366Z,91.50
2022-09-11T19:46:28.460Z,91.40
2022-09-11T19:48:57.757Z,91.40
2022-09-11T19:51:27.973Z,91.60
2022-09-11T19:53:56.804Z,91.60
2022-09-11T19:56:25.074Z,91.70
2022-09-11T19:58:52.950Z,91.70
2022-09-11T20:01:22.655Z,91.70
2022-09-11T20:03:50.965Z,91.60
2022-09-11T20:06:18.616Z,91.60
2022-09-11T20:08:47.320Z,91.60
2022-09-11T20:11:17.231Z,91.60
2022-09-11T20:13:44.287Z,91.60
2022-09-11T20:16:17.539Z,91.60
2022-09-11T20:18:44.640Z,91.60
2022-09-11T20:21:15.488Z,91.60
2022-09-11T20:23:43.640Z,91.60
2022-09-11T20:26:17.009Z,91.60
2022-09-11T20:28:47.898Z,91.70
2022-09-11T20:31:20.812Z,91.70
2022-09-11T20:33:51.203Z,91.70
2022-09-11T20:36:19.621Z,91.70
2022-09-11T20:38:54.422Z,91.70
2022-09-11T20:41:23.591Z,91.70
2022-09-11T20:43:50.631Z,91.70
2022-09-11T20:46:18.330Z,91.70
2022-09-11T20:48:48.823Z,91.70
2022-09-11T20:51:15.561Z,91.70
2022-09-11T20:53:45.584Z,91.70
2022-09-11T20:56:15.533Z,91.70
2022-09-11T20:58:42.671Z,91.60
2022-09-11T21:01:13.624Z,91.70
2022-09-11T21:03:48.673Z,91.70
2022-09-11T21:06:15.488Z,91.70
2022-09-11T21:08:44.292Z,91.70
2022-09-11T21:11:11.952Z,91.80
2022-09-11T21:13:40.352Z,91.70
2022-09-11T21:16:12.936Z,91.70
2022-09-11T21:18:44.644Z,91.70
2022-09-11T21:21:11.351Z,91.70
2022-09-11T21:23:38.100Z,91.70
2022-09-11T21:26:09.551Z,91.70
2022-09-11T21:28:36.409Z,91.80
2022-09-11T21:31:04.064Z,91.80
2022-09-11T21:33:32.954Z,91.80
2022-09-11T21:35:59.997Z,91.80
2022-09-11T21:38:29.408Z,91.80
2022-09-11T21:40:58.227Z,91.80
2022-09-11T21:43:25.284Z,91.80
2022-09-11T21:45:52.059Z,91.80
2022-09-11T21:48:18.781Z,91.70
2022-09-11T21:50:45.585Z,91.70
2022-09-11T21:53:12.428Z,91.80
2022-09-11T21:55:41.021Z,91.70
2022-09-11T21:58:07.944Z,91.70
2022-09-11T22:00:42.008Z,91.70
2022-09-11T22:03:10.919Z,91.60
2022-09-11T22:05:42.954Z,91.70
2022-09-11T22:08:10.629Z,91.70
2022-09-11T22:10:45.785Z,91.70
2022-09-11T22:13:12.706Z,91.60
2022-09-11T22:15:44.315Z,91.70
2022-09-11T22:18:11.215Z,91.70
2022-09-11T22:20:38.783Z,91.70
2022-09-11T22:23:06.259Z,91.60
2022-09-11T22:25:36.625Z,91.60
2022-09-11T22:28:04.697Z,91.60
2022-09-11T22:30:31.764Z,91.50
2022-09-11T22:32:59.772Z,91.60
2022-09-11T22:35:27.358Z,91.60
2022-09-11T22:37:54.508Z,91.50
2022-09-11T22:40:21.286Z,91.50
2022-09-11T22:42:48.320Z,91.50
2022-09-11T22:45:15.049Z,91.70
2022-09-11T22:47:41.763Z,91.70
2022-09-11T22:50:08.718Z,91.70
2022-09-11T22:52:37.260Z,91.70
2022-09-11T22:55:05.749Z,91.70
2022-09-11T22:57:34.990Z,91.80
2022-09-11T23:00:02.467Z,91.80
2022-09-11T23:02:29.191Z,91.80
2022-09-11T23:05:14.431Z,91.80
2022-09-11T23:07:41.488Z,91.80
2022-09-11T23:10:09.695Z,91.80
2022-09-11T23:12:37.324Z,91.80
2022-09-11T23:15:04.449Z,91.80
2022-09-11T23:17:31.247Z,91.70
2022-09-11T23:19:58.076Z,91.80
2022-09-11T23:22:27.041Z,91.80
2022-09-11T23:24:54.504Z,91.80
2022-09-11T23:27:21.604Z,91.80
2022-09-11T23:29:48.315Z,91.80
2022-09-11T23:32:15.036Z,91.80
2022-09-11T23:34:41.735Z,91.70
2022-09-11T23:37:08.426Z,91.80
2022-09-11T23:39:35.233Z,91.70
2022-09-11T23:42:01.983Z,91.70
2022-09-11T23:44:28.690Z,91.70
2022-09-11T23:46:55.374Z,91.70
2022-09-11T23:49:22.081Z,91.70
2022-09-11T23:51:49.130Z,91.70
2022-09-11T23:54:16.417Z,91.60
2022-09-11T23:56:43.294Z,91.60
2022-09-11T23:59:10.095Z,91.60
